sensor_id;sensor_type;location;lat;lon;timestamp;temperature;humidity
12761;DHT22;6444;49.742;6.114;2023-04-28T00:00:30;13.40;99.90
12761;DHT22;6444;49.742;6.114;2023-04-28T00:02:57;13.20;99.90
12761;DHT22;6444;49.742;6.114;2023-04-28T00:05:24;13.10;99.90
12761;DHT22;6444;49.742;6.114;2023-04-28T00:07:50;12.90;99.90
12761;DHT22;6444;49.742;6.114;2023-04-28T00:10:18;14.20;99.90
12761;DHT22;6444;49.742;6.114;2023-04-28T00:12:44;14.10;99.90
12761;DHT22;6444;49.742;6.114;2023-04-28T00:15:11;15.00;99.90
12761;DHT22;6444;49.742;6.114;2023-04-28T00:17:38;15.20;99.90
12761;DHT22;6444;49.742;6.114;2023-04-28T00:20:04;15.30;99.90
12761;DHT22;6444;49.742;6.114;2023-04-28T00:22:31;15.40;99.90
12761;DHT22;6444;49.742;6.114;2023-04-28T00:24:58;15.20;99.90
12761;DHT22;6444;49.742;6.114;2023-04-28T00:27:25;15.10;99.90
12761;DHT22;6444;49.742;6.114;2023-04-28T00:29:52;14.80;99.90
12761;DHT22;6444;49.742;6.114;2023-04-28T00:32:18;14.90;99.90
12761;DHT22;6444;49.742;6.114;2023-04-28T00:34:45;15.40;99.90
12761;DHT22;6444;49.742;6.114;2023-04-28T00:37:11;15.80;99.90
12761;DHT22;6444;49.742;6.114;2023-04-28T00:39:39;15.70;99.90
12761;DHT22;6444;49.742;6.114;2023-04-28T00:42:05;15.70;99.90
12761;DHT22;6444;49.742;6.114;2023-04-28T00:44:32;15.80;99.90
12761;DHT22;6444;49.742;6.114;2023-04-28T00:46:58;16.00;99.90
12761;DHT22;6444;49.742;6.114;2023-04-28T00:49:25;15.40;99.90
12761;DHT22;6444;49.742;6.114;2023-04-28T00:51:52;14.60;99.90
12761;DHT22;6444;49.742;6.114;2023-04-28T00:54:18;13.50;99.90
12761;DHT22;6444;49.742;6.114;2023-04-28T00:56:45;13.70;99.90
12761;DHT22;6444;49.742;6.114;2023-04-28T00:59:12;14.50;99.90
12761;DHT22;6444;49.742;6.114;2023-04-28T01:01:38;15.00;99.90
12761;DHT22;6444;49.742;6.114;2023-04-28T01:04:05;15.50;99.90
12761;DHT22;6444;49.742;6.114;2023-04-28T01:06:31;15.90;99.90
12761;DHT22;6444;49.742;6.114;2023-04-28T01:08:59;16.40;99.90
12761;DHT22;6444;49.742;6.114;2023-04-28T01:11:26;16.30;99.90
12761;DHT22;6444;49.742;6.114;2023-04-28T01:13:52;16.40;99.90
12761;DHT22;6444;49.742;6.114;2023-04-28T01:16:19;16.40;99.90
12761;DHT22;6444;49.742;6.114;2023-04-28T01:18:46;16.40;99.90
12761;DHT22;6444;49.742;6.114;2023-04-28T01:21:12;16.50;99.90
12761;DHT22;6444;49.742;6.114;2023-04-28T01:23:39;16.00;99.90
12761;DHT22;6444;49.742;6.114;2023-04-28T01:26:06;16.00;99.90
12761;DHT22;6444;49.742;6.114;2023-04-28T01:28:33;14.90;99.90
12761;DHT22;6444;49.742;6.114;2023-04-28T01:30:59;14.20;99.90
12761;DHT22;6444;49.742;6.114;2023-04-28T01:33:26;14.20;99.90
12761;DHT22;6444;49.742;6.114;2023-04-28T01:35:56;14.20;99.90
12761;DHT22;6444;49.742;6.114;2023-04-28T01:38:19;14.00;99.90
12761;DHT22;6444;49.742;6.114;2023-04-28T01:40:47;14.80;99.90
12761;DHT22;6444;49.742;6.114;2023-04-28T01:43:13;14.80;99.90
12761;DHT22;6444;49.742;6.114;2023-04-28T01:45:40;14.90;99.90
12761;DHT22;6444;49.742;6.114;2023-04-28T01:48:07;15.30;99.90
12761;DHT22;6444;49.742;6.114;2023-04-28T01:50:33;15.60;99.90
12761;DHT22;6444;49.742;6.114;2023-04-28T01:53:00;15.80;99.90
12761;DHT22;6444;49.742;6.114;2023-04-28T01:55:27;16.30;99.90
12761;DHT22;6444;49.742;6.114;2023-04-28T01:57:54;16.20;99.90
12761;DHT22;6444;49.742;6.114;2023-04-28T02:00:20;16.40;99.90
12761;DHT22;6444;49.742;6.114;2023-04-28T02:02:47;16.30;99.90
12761;DHT22;6444;49.742;6.114;2023-04-28T02:05:14;15.70;99.90
12761;DHT22;6444;49.742;6.114;2023-04-28T02:07:43;15.60;99.90
12761;DHT22;6444;49.742;6.114;2023-04-28T02:10:11;15.90;99.90
12761;DHT22;6444;49.742;6.114;2023-04-28T02:12:36;16.20;99.90
12761;DHT22;6444;49.742;6.114;2023-04-28T02:15:03;16.20;99.90
12761;DHT22;6444;49.742;6.114;2023-04-28T02:17:30;16.30;99.90
12761;DHT22;6444;49.742;6.114;2023-04-28T02:19:57;16.40;99.90
12761;DHT22;6444;49.742;6.114;2023-04-28T02:22:23;16.10;99.90
12761;DHT22;6444;49.742;6.114;2023-04-28T02:24:50;15.80;99.90
12761;DHT22;6444;49.742;6.114;2023-04-28T02:27:16;15.80;99.90
12761;DHT22;6444;49.742;6.114;2023-04-28T02:29:43;15.90;99.90
12761;DHT22;6444;49.742;6.114;2023-04-28T02:32:10;16.10;99.90
12761;DHT22;6444;49.742;6.114;2023-04-28T02:34:36;16.40;99.90
12761;DHT22;6444;49.742;6.114;2023-04-28T02:37:03;16.60;99.90
12761;DHT22;6444;49.742;6.114;2023-04-28T02:39:30;16.80;99.90
12761;DHT22;6444;49.742;6.114;2023-04-28T02:41:57;16.70;99.90
12761;DHT22;6444;49.742;6.114;2023-04-28T02:44:23;16.80;99.90
12761;DHT22;6444;49.742;6.114;2023-04-28T02:46:50;16.50;99.90
12761;DHT22;6444;49.742;6.114;2023-04-28T02:49:17;16.50;99.90
12761;DHT22;6444;49.742;6.114;2023-04-28T02:51:43;16.60;99.90
12761;DHT22;6444;49.742;6.114;2023-04-28T02:54:11;16.80;99.90
12761;DHT22;6444;49.742;6.114;2023-04-28T02:56:37;16.70;99.90
12761;DHT22;6444;49.742;6.114;2023-04-28T02:59:04;16.70;99.90
12761;DHT22;6444;49.742;6.114;2023-04-28T03:01:31;16.60;99.90
12761;DHT22;6444;49.742;6.114;2023-04-28T03:03:57;16.50;99.90
12761;DHT22;6444;49.742;6.114;2023-04-28T03:06:24;16.50;99.90
12761;DHT22;6444;49.742;6.114;2023-04-28T03:08:51;16.60;99.90
12761;DHT22;6444;49.742;6.114;2023-04-28T03:11:18;16.50;99.90
12761;DHT22;6444;49.742;6.114;2023-04-28T03:13:45;16.50;99.90
12761;DHT22;6444;49.742;6.114;2023-04-28T03:16:12;16.30;99.90
12761;DHT22;6444;49.742;6.114;2023-04-28T03:18:39;16.30;99.90
12761;DHT22;6444;49.742;6.114;2023-04-28T03:21:05;16.20;99.90
12761;DHT22;6444;49.742;6.114;2023-04-28T03:23:32;15.70;99.90
12761;DHT22;6444;49.742;6.114;2023-04-28T03:25:59;16.00;99.90
12761;DHT22;6444;49.742;6.114;2023-04-28T03:28:25;16.30;99.90
12761;DHT22;6444;49.742;6.114;2023-04-28T03:30:52;15.20;99.90
12761;DHT22;6444;49.742;6.114;2023-04-28T03:33:19;14.90;99.90
12761;DHT22;6444;49.742;6.114;2023-04-28T03:35:45;15.20;99.90
12761;DHT22;6444;49.742;6.114;2023-04-28T03:38:12;15.10;99.90
12761;DHT22;6444;49.742;6.114;2023-04-28T03:40:39;15.10;99.90
12761;DHT22;6444;49.742;6.114;2023-04-28T03:43:05;15.50;99.90
12761;DHT22;6444;49.742;6.114;2023-04-28T03:45:32;15.70;99.90
12761;DHT22;6444;49.742;6.114;2023-04-28T03:47:58;15.90;99.90
12761;DHT22;6444;49.742;6.114;2023-04-28T03:50:25;16.00;99.90
12761;DHT22;6444;49.742;6.114;2023-04-28T03:52:52;15.30;99.90
12761;DHT22;6444;49.742;6.114;2023-04-28T03:55:19;13.90;99.90
12761;DHT22;6444;49.742;6.114;2023-04-28T03:57:46;13.90;99.90
12761;DHT22;6444;49.742;6.114;2023-04-28T04:00:12;13.80;99.90
12761;DHT22;6444;49.742;6.114;2023-04-28T04:02:40;13.00;99.90
12761;DHT22;6444;49.742;6.114;2023-04-28T04:05:06;13.00;99.90
12761;DHT22;6444;49.742;6.114;2023-04-28T04:07:33;13.40;99.90
12761;DHT22;6444;49.742;6.114;2023-04-28T04:10:00;13.40;99.90
12761;DHT22;6444;49.742;6.114;2023-04-28T04:12:26;13.70;99.90
12761;DHT22;6444;49.742;6.114;2023-04-28T04:14:54;13.50;99.90
12761;DHT22;6444;49.742;6.114;2023-04-28T04:17:20;13.50;99.90
12761;DHT22;6444;49.742;6.114;2023-04-28T04:19:47;13.10;99.90
12761;DHT22;6444;49.742;6.114;2023-04-28T04:22:14;12.80;99.90
12761;DHT22;6444;49.742;6.114;2023-04-28T04:24:40;12.60;99.90
12761;DHT22;6444;49.742;6.114;2023-04-28T04:27:07;12.60;99.90
12761;DHT22;6444;49.742;6.114;2023-04-28T04:29:33;12.40;99.90
12761;DHT22;6444;49.742;6.114;2023-04-28T04:32:00;12.40;99.90
12761;DHT22;6444;49.742;6.114;2023-04-28T04:34:28;12.50;99.90
12761;DHT22;6444;49.742;6.114;2023-04-28T04:36:54;12.50;99.90
12761;DHT22;6444;49.742;6.114;2023-04-28T04:39:21;12.50;99.90
12761;DHT22;6444;49.742;6.114;2023-04-28T04:41:47;12.70;99.90
12761;DHT22;6444;49.742;6.114;2023-04-28T04:44:14;12.70;99.90
12761;DHT22;6444;49.742;6.114;2023-04-28T04:46:41;12.80;99.90
12761;DHT22;6444;49.742;6.114;2023-04-28T04:49:07;13.10;99.90
12761;DHT22;6444;49.742;6.114;2023-04-28T04:51:34;13.50;99.90
12761;DHT22;6444;49.742;6.114;2023-04-28T04:54:01;14.40;99.90
12761;DHT22;6444;49.742;6.114;2023-04-28T04:56:27;15.10;99.90
12761;DHT22;6444;49.742;6.114;2023-04-28T04:58:54;15.00;99.90
12761;DHT22;6444;49.742;6.114;2023-04-28T05:01:20;14.20;99.90
12761;DHT22;6444;49.742;6.114;2023-04-28T05:03:47;13.50;99.90
12761;DHT22;6444;49.742;6.114;2023-04-28T05:06:14;13.10;99.90
12761;DHT22;6444;49.742;6.114;2023-04-28T05:08:40;13.40;99.90
12761;DHT22;6444;49.742;6.114;2023-04-28T05:11:07;13.70;99.90
12761;DHT22;6444;49.742;6.114;2023-04-28T05:13:34;13.50;99.90
12761;DHT22;6444;49.742;6.114;2023-04-28T05:16:00;13.40;99.90
12761;DHT22;6444;49.742;6.114;2023-04-28T05:18:27;13.70;99.90
12761;DHT22;6444;49.742;6.114;2023-04-28T05:20:53;13.60;99.90
12761;DHT22;6444;49.742;6.114;2023-04-28T05:23:20;13.30;99.90
12761;DHT22;6444;49.742;6.114;2023-04-28T05:25:47;13.50;99.90
12761;DHT22;6444;49.742;6.114;2023-04-28T05:28:13;14.00;99.90
12761;DHT22;6444;49.742;6.114;2023-04-28T05:30:40;14.10;99.90
12761;DHT22;6444;49.742;6.114;2023-04-28T05:33:07;14.20;99.90
12761;DHT22;6444;49.742;6.114;2023-04-28T05:35:33;14.30;99.90
12761;DHT22;6444;49.742;6.114;2023-04-28T05:38:00;14.10;99.90
12761;DHT22;6444;49.742;6.114;2023-04-28T05:40:27;14.20;99.90
12761;DHT22;6444;49.742;6.114;2023-04-28T05:42:53;14.50;99.90
12761;DHT22;6444;49.742;6.114;2023-04-28T05:45:20;14.30;99.90
12761;DHT22;6444;49.742;6.114;2023-04-28T05:47:46;14.60;99.90
12761;DHT22;6444;49.742;6.114;2023-04-28T05:50:13;15.00;99.90
12761;DHT22;6444;49.742;6.114;2023-04-28T05:52:40;15.00;99.90
12761;DHT22;6444;49.742;6.114;2023-04-28T05:55:06;15.10;99.90
12761;DHT22;6444;49.742;6.114;2023-04-28T05:57:33;14.90;99.90
12761;DHT22;6444;49.742;6.114;2023-04-28T06:00:00;15.10;99.90
12761;DHT22;6444;49.742;6.114;2023-04-28T06:02:26;15.40;99.90
12761;DHT22;6444;49.742;6.114;2023-04-28T06:04:53;14.90;99.90
12761;DHT22;6444;49.742;6.114;2023-04-28T06:07:19;14.50;99.90
12761;DHT22;6444;49.742;6.114;2023-04-28T06:09:46;14.80;99.90
12761;DHT22;6444;49.742;6.114;2023-04-28T06:12:13;15.40;99.90
12761;DHT22;6444;49.742;6.114;2023-04-28T06:14:39;15.60;99.90
12761;DHT22;6444;49.742;6.114;2023-04-28T06:17:07;15.90;99.90
12761;DHT22;6444;49.742;6.114;2023-04-28T06:19:33;15.80;99.90
12761;DHT22;6444;49.742;6.114;2023-04-28T06:22:00;16.50;99.90
12761;DHT22;6444;49.742;6.114;2023-04-28T06:24:27;16.20;99.90
12761;DHT22;6444;49.742;6.114;2023-04-28T06:26:54;16.00;99.90
12761;DHT22;6444;49.742;6.114;2023-04-28T06:29:20;16.10;99.90
12761;DHT22;6444;49.742;6.114;2023-04-28T06:31:47;16.00;99.90
12761;DHT22;6444;49.742;6.114;2023-04-28T06:34:13;15.90;99.90
12761;DHT22;6444;49.742;6.114;2023-04-28T06:36:40;16.10;99.90
12761;DHT22;6444;49.742;6.114;2023-04-28T06:39:06;16.10;99.90
12761;DHT22;6444;49.742;6.114;2023-04-28T06:41:33;16.40;99.90
12761;DHT22;6444;49.742;6.114;2023-04-28T06:44:00;16.20;99.90
12761;DHT22;6444;49.742;6.114;2023-04-28T06:46:26;15.60;99.90
12761;DHT22;6444;49.742;6.114;2023-04-28T06:48:53;15.80;99.90
12761;DHT22;6444;49.742;6.114;2023-04-28T06:51:20;16.20;99.90
12761;DHT22;6444;49.742;6.114;2023-04-28T06:53:46;16.50;99.90
12761;DHT22;6444;49.742;6.114;2023-04-28T06:56:14;16.90;99.90
12761;DHT22;6444;49.742;6.114;2023-04-28T06:58:40;16.90;99.90
12761;DHT22;6444;49.742;6.114;2023-04-28T07:01:07;16.20;99.90
12761;DHT22;6444;49.742;6.114;2023-04-28T07:03:34;16.20;99.90
12761;DHT22;6444;49.742;6.114;2023-04-28T07:06:00;16.60;99.90
12761;DHT22;6444;49.742;6.114;2023-04-28T07:08:27;17.00;99.90
12761;DHT22;6444;49.742;6.114;2023-04-28T07:10:53;17.30;99.90
12761;DHT22;6444;49.742;6.114;2023-04-28T07:13:21;17.20;99.90
12761;DHT22;6444;49.742;6.114;2023-04-28T07:15:48;17.20;99.90
12761;DHT22;6444;49.742;6.114;2023-04-28T07:18:14;17.30;99.90
12761;DHT22;6444;49.742;6.114;2023-04-28T07:20:41;17.40;99.90
12761;DHT22;6444;49.742;6.114;2023-04-28T07:23:07;17.70;99.90
12761;DHT22;6444;49.742;6.114;2023-04-28T07:25:34;17.80;99.90
12761;DHT22;6444;49.742;6.114;2023-04-28T07:28:02;17.90;99.90
12761;DHT22;6444;49.742;6.114;2023-04-28T07:30:28;17.80;99.90
12761;DHT22;6444;49.742;6.114;2023-04-28T07:32:55;17.70;99.90
12761;DHT22;6444;49.742;6.114;2023-04-28T07:35:21;17.80;99.90
12761;DHT22;6444;49.742;6.114;2023-04-28T07:37:48;18.00;99.90
12761;DHT22;6444;49.742;6.114;2023-04-28T07:40:15;17.50;99.90
12761;DHT22;6444;49.742;6.114;2023-04-28T07:42:42;17.40;99.90
12761;DHT22;6444;49.742;6.114;2023-04-28T07:45:09;17.10;99.90
12761;DHT22;6444;49.742;6.114;2023-04-28T07:47:35;17.30;99.90
12761;DHT22;6444;49.742;6.114;2023-04-28T07:50:02;17.40;99.90
12761;DHT22;6444;49.742;6.114;2023-04-28T07:52:28;17.80;99.90
12761;DHT22;6444;49.742;6.114;2023-04-28T07:54:55;18.00;99.90
12761;DHT22;6444;49.742;6.114;2023-04-28T07:57:22;16.80;99.90
12761;DHT22;6444;49.742;6.114;2023-04-28T07:59:48;16.20;99.90
12761;DHT22;6444;49.742;6.114;2023-04-28T08:02:15;16.50;99.90
12761;DHT22;6444;49.742;6.114;2023-04-28T08:04:42;16.50;99.90
12761;DHT22;6444;49.742;6.114;2023-04-28T08:07:08;17.40;99.90
12761;DHT22;6444;49.742;6.114;2023-04-28T08:09:35;18.10;99.90
12761;DHT22;6444;49.742;6.114;2023-04-28T08:12:01;19.10;99.90
12761;DHT22;6444;49.742;6.114;2023-04-28T08:14:28;18.70;99.90
12761;DHT22;6444;49.742;6.114;2023-04-28T08:16:55;18.80;99.90
12761;DHT22;6444;49.742;6.114;2023-04-28T08:19:21;19.00;99.90
12761;DHT22;6444;49.742;6.114;2023-04-28T08:21:48;19.40;99.90
12761;DHT22;6444;49.742;6.114;2023-04-28T08:24:15;19.70;99.90
12761;DHT22;6444;49.742;6.114;2023-04-28T08:26:41;19.80;99.90
12761;DHT22;6444;49.742;6.114;2023-04-28T08:29:08;19.90;99.90
12761;DHT22;6444;49.742;6.114;2023-04-28T08:31:34;19.90;99.90
12761;DHT22;6444;49.742;6.114;2023-04-28T08:34:01;20.00;99.90
12761;DHT22;6444;49.742;6.114;2023-04-28T08:36:28;19.70;99.90
12761;DHT22;6444;49.742;6.114;2023-04-28T08:38:54;19.60;99.90
12761;DHT22;6444;49.742;6.114;2023-04-28T08:41:22;18.20;99.90
12761;DHT22;6444;49.742;6.114;2023-04-28T08:43:48;18.10;99.90
12761;DHT22;6444;49.742;6.114;2023-04-28T08:46:15;18.40;99.90
12761;DHT22;6444;49.742;6.114;2023-04-28T08:48:42;18.60;99.90
12761;DHT22;6444;49.742;6.114;2023-04-28T08:51:08;18.90;99.90
12761;DHT22;6444;49.742;6.114;2023-04-28T08:53:36;19.60;99.90
12761;DHT22;6444;49.742;6.114;2023-04-28T08:56:04;19.50;99.90
12761;DHT22;6444;49.742;6.114;2023-04-28T08:58:29;19.80;99.90
12761;DHT22;6444;49.742;6.114;2023-04-28T09:00:56;19.60;99.90
12761;DHT22;6444;49.742;6.114;2023-04-28T09:03:22;19.90;99.90
12761;DHT22;6444;49.742;6.114;2023-04-28T09:05:49;19.90;99.90
12761;DHT22;6444;49.742;6.114;2023-04-28T09:08:15;20.10;99.90
12761;DHT22;6444;49.742;6.114;2023-04-28T09:10:42;20.40;99.90
12761;DHT22;6444;49.742;6.114;2023-04-28T09:13:09;20.40;99.90
12761;DHT22;6444;49.742;6.114;2023-04-28T09:15:36;20.60;99.90
12761;DHT22;6444;49.742;6.114;2023-04-28T09:18:03;20.80;99.90
12761;DHT22;6444;49.742;6.114;2023-04-28T09:20:29;20.90;99.90
12761;DHT22;6444;49.742;6.114;2023-04-28T09:22:56;20.90;99.90
12761;DHT22;6444;49.742;6.114;2023-04-28T09:25:22;21.20;99.90
12761;DHT22;6444;49.742;6.114;2023-04-28T09:27:52;21.30;99.90
12761;DHT22;6444;49.742;6.114;2023-04-28T09:30:18;20.90;99.90
12761;DHT22;6444;49.742;6.114;2023-04-28T09:32:45;19.80;99.90
12761;DHT22;6444;49.742;6.114;2023-04-28T09:35:11;19.80;99.90
12761;DHT22;6444;49.742;6.114;2023-04-28T09:37:38;20.00;99.90
12761;DHT22;6444;49.742;6.114;2023-04-28T09:40:08;20.60;99.90
12761;DHT22;6444;49.742;6.114;2023-04-28T09:42:43;20.40;99.90
12761;DHT22;6444;49.742;6.114;2023-04-28T09:45:10;19.80;99.90
12761;DHT22;6444;49.742;6.114;2023-04-28T09:47:37;19.40;99.90
12761;DHT22;6444;49.742;6.114;2023-04-28T09:50:03;19.10;99.90
12761;DHT22;6444;49.742;6.114;2023-04-28T09:52:29;19.10;99.90
12761;DHT22;6444;49.742;6.114;2023-04-28T09:54:56;19.80;99.90
12761;DHT22;6444;49.742;6.114;2023-04-28T09:57:23;19.60;99.90
12761;DHT22;6444;49.742;6.114;2023-04-28T09:59:50;19.40;99.90
12761;DHT22;6444;49.742;6.114;2023-04-28T10:02:17;18.60;99.90
12761;DHT22;6444;49.742;6.114;2023-04-28T10:04:45;17.90;99.90
12761;DHT22;6444;49.742;6.114;2023-04-28T10:07:12;17.50;99.90
12761;DHT22;6444;49.742;6.114;2023-04-28T10:09:38;17.20;99.90
12761;DHT22;6444;49.742;6.114;2023-04-28T10:12:05;17.20;99.90
12761;DHT22;6444;49.742;6.114;2023-04-28T10:14:31;17.30;99.90
12761;DHT22;6444;49.742;6.114;2023-04-28T10:16:58;17.20;99.90
12761;DHT22;6444;49.742;6.114;2023-04-28T10:19:25;17.30;99.90
12761;DHT22;6444;49.742;6.114;2023-04-28T10:21:54;17.00;99.90
12761;DHT22;6444;49.742;6.114;2023-04-28T10:24:21;16.80;99.90
12761;DHT22;6444;49.742;6.114;2023-04-28T10:27:00;16.60;99.90
12761;DHT22;6444;49.742;6.114;2023-04-28T10:29:26;16.70;99.90
12761;DHT22;6444;49.742;6.114;2023-04-28T10:32:15;16.90;99.90
12761;DHT22;6444;49.742;6.114;2023-04-28T10:34:41;17.20;99.90
12761;DHT22;6444;49.742;6.114;2023-04-28T10:37:07;17.40;99.90
12761;DHT22;6444;49.742;6.114;2023-04-28T10:39:34;17.40;99.90
12761;DHT22;6444;49.742;6.114;2023-04-28T10:42:00;17.80;99.90
12761;DHT22;6444;49.742;6.114;2023-04-28T10:47:03;18.00;99.90
12761;DHT22;6444;49.742;6.114;2023-04-28T10:55:32;17.30;99.90
12761;DHT22;6444;49.742;6.114;2023-04-28T11:00:47;17.50;99.90
12761;DHT22;6444;49.742;6.114;2023-04-28T11:06:21;19.60;99.90
12761;DHT22;6444;49.742;6.114;2023-04-28T11:08:55;20.70;99.90
12761;DHT22;6444;49.742;6.114;2023-04-28T11:11:31;22.50;99.90
12761;DHT22;6444;49.742;6.114;2023-04-28T11:16:48;21.70;99.90
12761;DHT22;6444;49.742;6.114;2023-04-28T11:19:17;21.50;99.90
12761;DHT22;6444;49.742;6.114;2023-04-28T11:21:41;21.20;99.90
12761;DHT22;6444;49.742;6.114;2023-04-28T11:24:08;21.20;99.90
12761;DHT22;6444;49.742;6.114;2023-04-28T11:26:36;22.20;99.90
12761;DHT22;6444;49.742;6.114;2023-04-28T11:29:01;23.20;99.90
12761;DHT22;6444;49.742;6.114;2023-04-28T11:31:28;22.60;99.90
12761;DHT22;6444;49.742;6.114;2023-04-28T11:34:10;21.80;99.90
12761;DHT22;6444;49.742;6.114;2023-04-28T11:36:39;22.40;99.90
12761;DHT22;6444;49.742;6.114;2023-04-28T11:39:06;22.80;99.90
12761;DHT22;6444;49.742;6.114;2023-04-28T11:41:33;23.50;99.90
12761;DHT22;6444;49.742;6.114;2023-04-28T11:43:59;23.90;99.90
12761;DHT22;6444;49.742;6.114;2023-04-28T11:46:25;24.40;99.90
12761;DHT22;6444;49.742;6.114;2023-04-28T11:49:04;23.30;99.90
12761;DHT22;6444;49.742;6.114;2023-04-28T11:51:34;23.40;99.90
12761;DHT22;6444;49.742;6.114;2023-04-28T11:54:00;23.40;99.90
12761;DHT22;6444;49.742;6.114;2023-04-28T11:56:27;23.00;99.90
12761;DHT22;6444;49.742;6.114;2023-04-28T11:59:02;22.60;99.90
12761;DHT22;6444;49.742;6.114;2023-04-28T12:01:26;22.10;99.90
12761;DHT22;6444;49.742;6.114;2023-04-28T12:03:53;21.80;99.90
12761;DHT22;6444;49.742;6.114;2023-04-28T12:06:20;21.80;99.90
12761;DHT22;6444;49.742;6.114;2023-04-28T12:08:47;22.00;99.90
12761;DHT22;6444;49.742;6.114;2023-04-28T12:11:13;21.70;99.90
12761;DHT22;6444;49.742;6.114;2023-04-28T12:13:40;22.20;99.90
12761;DHT22;6444;49.742;6.114;2023-04-28T12:16:06;22.40;99.90
12761;DHT22;6444;49.742;6.114;2023-04-28T12:18:33;21.80;99.90
12761;DHT22;6444;49.742;6.114;2023-04-28T12:21:01;22.00;99.90
12761;DHT22;6444;49.742;6.114;2023-04-28T12:23:33;22.80;99.90
12761;DHT22;6444;49.742;6.114;2023-04-28T12:26:02;22.90;99.90
12761;DHT22;6444;49.742;6.114;2023-04-28T12:28:35;22.70;99.90
12761;DHT22;6444;49.742;6.114;2023-04-28T12:31:02;22.70;99.90
12761;DHT22;6444;49.742;6.114;2023-04-28T12:33:28;23.80;99.90
12761;DHT22;6444;49.742;6.114;2023-04-28T12:35:55;23.80;99.90
12761;DHT22;6444;49.742;6.114;2023-04-28T12:38:22;23.60;99.90
12761;DHT22;6444;49.742;6.114;2023-04-28T12:40:49;24.30;99.90
12761;DHT22;6444;49.742;6.114;2023-04-28T12:43:16;24.20;99.90
12761;DHT22;6444;49.742;6.114;2023-04-28T12:45:42;24.40;99.90
12761;DHT22;6444;49.742;6.114;2023-04-28T12:48:09;23.00;99.90
12761;DHT22;6444;49.742;6.114;2023-04-28T12:50:36;22.90;99.90
12761;DHT22;6444;49.742;6.114;2023-04-28T12:53:03;23.10;99.90
12761;DHT22;6444;49.742;6.114;2023-04-28T12:55:30;23.10;99.90
12761;DHT22;6444;49.742;6.114;2023-04-28T12:57:56;23.10;99.90
12761;DHT22;6444;49.742;6.114;2023-04-28T13:00:23;23.80;99.90
12761;DHT22;6444;49.742;6.114;2023-04-28T13:02:50;23.80;99.90
12761;DHT22;6444;49.742;6.114;2023-04-28T13:05:16;23.70;99.90
12761;DHT22;6444;49.742;6.114;2023-04-28T13:07:43;23.80;99.90
12761;DHT22;6444;49.742;6.114;2023-04-28T13:10:09;24.30;99.90
12761;DHT22;6444;49.742;6.114;2023-04-28T13:12:36;24.00;99.90
12761;DHT22;6444;49.742;6.114;2023-04-28T13:15:03;24.20;99.90
12761;DHT22;6444;49.742;6.114;2023-04-28T13:17:29;23.50;99.90
12761;DHT22;6444;49.742;6.114;2023-04-28T13:19:56;23.70;99.90
12761;DHT22;6444;49.742;6.114;2023-04-28T13:22:23;23.60;99.90
12761;DHT22;6444;49.742;6.114;2023-04-28T13:24:49;23.40;99.90
12761;DHT22;6444;49.742;6.114;2023-04-28T13:27:16;23.80;99.90
12761;DHT22;6444;49.742;6.114;2023-04-28T13:29:42;22.90;99.90
12761;DHT22;6444;49.742;6.114;2023-04-28T13:32:10;22.60;99.90
12761;DHT22;6444;49.742;6.114;2023-04-28T13:34:36;22.60;99.90
12761;DHT22;6444;49.742;6.114;2023-04-28T13:37:03;23.20;99.90
12761;DHT22;6444;49.742;6.114;2023-04-28T13:39:30;23.70;99.90
12761;DHT22;6444;49.742;6.114;2023-04-28T13:41:56;23.30;99.90
12761;DHT22;6444;49.742;6.114;2023-04-28T13:44:24;24.00;99.90
12761;DHT22;6444;49.742;6.114;2023-04-28T13:46:51;23.90;99.90
12761;DHT22;6444;49.742;6.114;2023-04-28T13:49:17;24.40;99.90
12761;DHT22;6444;49.742;6.114;2023-04-28T13:51:44;23.60;99.90
12761;DHT22;6444;49.742;6.114;2023-04-28T13:54:10;22.50;99.90
12761;DHT22;6444;49.742;6.114;2023-04-28T13:56:37;22.80;99.90
12761;DHT22;6444;49.742;6.114;2023-04-28T13:59:04;23.70;99.90
12761;DHT22;6444;49.742;6.114;2023-04-28T14:01:30;24.50;99.90
12761;DHT22;6444;49.742;6.114;2023-04-28T14:03:57;24.30;99.90
12761;DHT22;6444;49.742;6.114;2023-04-28T14:06:23;24.20;99.90
12761;DHT22;6444;49.742;6.114;2023-04-28T14:08:50;24.30;99.90
12761;DHT22;6444;49.742;6.114;2023-04-28T14:11:17;24.40;99.90
12761;DHT22;6444;49.742;6.114;2023-04-28T14:13:43;23.80;99.90
12761;DHT22;6444;49.742;6.114;2023-04-28T14:16:10;23.00;99.90
12761;DHT22;6444;49.742;6.114;2023-04-28T14:18:36;22.60;99.90
12761;DHT22;6444;49.742;6.114;2023-04-28T14:21:04;23.10;99.90
12761;DHT22;6444;49.742;6.114;2023-04-28T14:23:30;23.10;99.90
12761;DHT22;6444;49.742;6.114;2023-04-28T14:25:57;22.80;99.90
12761;DHT22;6444;49.742;6.114;2023-04-28T14:28:24;23.10;99.90
12761;DHT22;6444;49.742;6.114;2023-04-28T14:30:52;23.80;99.90
12761;DHT22;6444;49.742;6.114;2023-04-28T14:33:18;24.40;99.90
12761;DHT22;6444;49.742;6.114;2023-04-28T14:35:44;24.40;99.90
12761;DHT22;6444;49.742;6.114;2023-04-28T14:38:12;24.40;99.90
12761;DHT22;6444;49.742;6.114;2023-04-28T14:40:38;24.10;99.90
12761;DHT22;6444;49.742;6.114;2023-04-28T14:43:04;23.90;99.90
12761;DHT22;6444;49.742;6.114;2023-04-28T14:45:31;23.50;99.90
12761;DHT22;6444;49.742;6.114;2023-04-28T14:47:58;23.80;99.90
12761;DHT22;6444;49.742;6.114;2023-04-28T14:50:24;22.80;99.90
12761;DHT22;6444;49.742;6.114;2023-04-28T14:52:51;22.30;99.90
12761;DHT22;6444;49.742;6.114;2023-04-28T14:55:18;23.10;99.90
12761;DHT22;6444;49.742;6.114;2023-04-28T14:57:44;24.10;99.90
12761;DHT22;6444;49.742;6.114;2023-04-28T15:00:11;24.20;99.90
12761;DHT22;6444;49.742;6.114;2023-04-28T15:02:38;23.40;99.90
12761;DHT22;6444;49.742;6.114;2023-04-28T15:05:04;22.40;99.90
12761;DHT22;6444;49.742;6.114;2023-04-28T15:07:31;21.90;99.90
12761;DHT22;6444;49.742;6.114;2023-04-28T15:09:58;21.90;99.90
12761;DHT22;6444;49.742;6.114;2023-04-28T15:12:24;22.20;99.90
12761;DHT22;6444;49.742;6.114;2023-04-28T15:14:51;22.80;99.90
12761;DHT22;6444;49.742;6.114;2023-04-28T15:17:18;23.20;99.90
12761;DHT22;6444;49.742;6.114;2023-04-28T15:19:44;23.40;99.90
12761;DHT22;6444;49.742;6.114;2023-04-28T15:22:11;22.70;99.90
12761;DHT22;6444;49.742;6.114;2023-04-28T15:24:37;22.40;99.90
12761;DHT22;6444;49.742;6.114;2023-04-28T15:27:04;22.50;99.90
12761;DHT22;6444;49.742;6.114;2023-04-28T15:29:31;22.30;99.90
12761;DHT22;6444;49.742;6.114;2023-04-28T15:31:57;22.10;99.90
12761;DHT22;6444;49.742;6.114;2023-04-28T15:34:24;22.00;99.90
12761;DHT22;6444;49.742;6.114;2023-04-28T15:36:50;22.30;99.90
12761;DHT22;6444;49.742;6.114;2023-04-28T15:39:19;22.70;99.90
12761;DHT22;6444;49.742;6.114;2023-04-28T15:41:46;23.10;99.90
12761;DHT22;6444;49.742;6.114;2023-04-28T15:44:13;22.40;99.90
12761;DHT22;6444;49.742;6.114;2023-04-28T15:46:39;22.00;99.90
12761;DHT22;6444;49.742;6.114;2023-04-28T15:49:06;21.80;99.90
12761;DHT22;6444;49.742;6.114;2023-04-28T15:51:33;21.50;99.90
12761;DHT22;6444;49.742;6.114;2023-04-28T15:53:59;21.80;99.90
12761;DHT22;6444;49.742;6.114;2023-04-28T15:56:26;21.80;99.90
12761;DHT22;6444;49.742;6.114;2023-04-28T15:58:53;21.90;99.90